Time;durP1;ratioP1;P1;durP2;ratioP2;P2;SDS_P1;SDS_P2;PMS_P1;PMS_P2;Temp;Humidity;BMP_temperature;BMP_pressure;BME280_temperature;BME280_humidity;BME280_pressure;Samples;Min_cycle;Max_cycle;Signal;HPM_P1;HPM_P2
2021/06/29 00:00:26;;;;;;;6.57;1.60;;;14.70;90.60;;;;;;5052912;28;19905;-75
2021/06/29 00:03:03;;;;;;;4.40;1.38;;;14.70;90.70;;;;;;5052916;28;20018;-75
2021/06/29 00:05:34;;;;;;;8.45;1.50;;;14.60;90.60;;;;;;5051326;28;20499;-76
2021/06/29 00:08:02;;;;;;;5.82;1.67;;;14.60;90.20;;;;;;5051195;28;20024;-76
2021/06/29 00:10:30;;;;;;;5.60;1.40;;;14.60;90.00;;;;;;5051504;28;20029;-77
2021/06/29 00:12:56;;;;;;;7.10;1.73;;;14.50;90.50;;;;;;5053030;28;20021;-74
2021/06/29 00:15:23;;;;;;;4.78;1.67;;;14.30;91.30;;;;;;5052974;28;20049;-76
2021/06/29 00:17:49;;;;;;;5.32;1.30;;;14.10;91.90;;;;;;5052784;28;20025;-76
2021/06/29 00:20:15;;;;;;;;;;;14.00;91.80;;;;;;5053197;28;20028;-76
2021/06/29 00:22:41;;;;;;;4.82;1.60;;;14.10;91.50;;;;;;5052581;28;19905;-75
2021/06/29 00:25:10;;;;;;;1.92;1.10;;;14.30;91.10;;;;;;5052688;28;20092;-76
2021/06/29 00:27:36;;;;;;;3.92;1.20;;;14.20;91.30;;;;;;5052559;28;20039;-76
2021/06/29 00:30:02;;;;;;;3.55;1.40;;;14.20;91.30;;;;;;5052932;28;20088;-74
2021/06/29 00:32:28;;;;;;;4.50;1.20;;;14.10;91.60;;;;;;5052710;28;20025;-76
2021/06/29 00:34:54;;;;;;;4.07;1.20;;;14.00;91.50;;;;;;5052615;28;20140;-76
2021/06/29 00:37:19;;;;;;;;;;;14.20;91.20;;;;;;5052724;28;20505;-76
2021/06/29 00:39:45;;;;;;;;;;;14.00;91.50;;;;;;5055913;28;19904;-74
2021/06/29 00:42:11;;;;;;;;;;;13.80;91.90;;;;;;5056936;28;19911;-76
2021/06/29 00:44:36;;;;;;;;;;;13.90;92.20;;;;;;5055440;28;20371;-76
2021/06/29 00:47:02;;;;;;;3.78;1.52;;;14.10;92.00;;;;;;5056142;28;19916;-74
2021/06/29 00:49:28;;;;;;;2.70;1.20;;;14.20;91.60;;;;;;5056587;28;20432;-76
2021/06/29 00:51:54;;;;;;;11.93;1.60;;;14.40;91.60;;;;;;5056317;28;20382;-76
2021/06/29 00:54:20;;;;;;;3.30;1.20;;;14.40;91.40;;;;;;5056125;28;20028;-75
2021/06/29 00:56:46;;;;;;;;;;;14.70;90.90;;;;;;5056466;28;20092;-76
2021/06/29 00:59:12;;;;;;;4.05;1.23;;;14.80;90.00;;;;;;5055996;28;19936;-76
2021/06/29 01:01:38;;;;;;;3.88;1.27;;;14.90;90.00;;;;;;5055406;28;20025;-76
2021/06/29 01:04:06;;;;;;;5.45;1.40;;;14.90;89.20;;;;;;5055909;28;20048;-76
2021/06/29 01:06:33;;;;;;;3.85;1.23;;;14.80;88.90;;;;;;5054568;28;20032;-77
2021/06/29 01:09:00;;;;;;;6.82;1.20;;;14.80;89.40;;;;;;5055731;28;20115;-75
2021/06/29 01:11:25;;;;;;;5.03;1.35;;;14.80;89.10;;;;;;5055780;28;20473;-76
2021/06/29 01:13:51;;;;;;;5.07;1.38;;;14.80;89.30;;;;;;5055775;28;20025;-75
2021/06/29 01:16:18;;;;;;;6.95;1.60;;;14.60;90.00;;;;;;5055715;28;20497;-75
2021/06/29 01:18:45;;;;;;;5.15;1.40;;;14.60;90.30;;;;;;5055676;28;20051;-75
2021/06/29 01:21:19;;;;;;;4.78;1.40;;;14.50;90.60;;;;;;5054324;28;20393;-77
2021/06/29 01:23:54;;;;;;;6.55;1.50;;;14.50;90.90;;;;;;5055473;28;20051;-75
2021/06/29 01:26:21;;;;;;;5.90;1.48;;;14.60;90.30;;;;;;5053989;28;20115;-76
2021/06/29 01:28:56;;;;;;;4.53;1.48;;;14.50;90.40;;;;;;5055311;28;20025;-77
2021/06/29 01:31:22;;;;;;;7.40;1.50;;;14.40;90.80;;;;;;5053837;28;20017;-76
2021/06/29 01:33:49;;;;;;;5.95;1.30;;;14.50;90.80;;;;;;5055395;28;20024;-75
2021/06/29 01:36:19;;;;;;;4.47;1.30;;;14.60;90.40;;;;;;5055406;28;20021;-75
2021/06/29 01:38:47;;;;;;;9.10;1.45;;;14.70;90.40;;;;;;5053828;28;20037;-76
2021/06/29 01:41:32;;;;;;;5.40;1.35;;;14.80;90.30;;;;;;5054964;28;20424;-76
2021/06/29 01:44:10;;;;;;;5.85;1.48;;;14.90;90.10;;;;;;5055157;28;20025;-75
2021/06/29 01:46:38;;;;;;;3.55;1.40;;;14.80;89.50;;;;;;5055153;28;20059;-76
2021/06/29 01:49:05;;;;;;;6.65;1.80;;;14.40;90.50;;;;;;5054470;28;20017;-75
2021/06/29 01:51:30;;;;;;;4.65;1.45;;;14.50;90.70;;;;;;5055166;28;20393;-75
2021/06/29 01:53:57;;;;;;;9.35;1.50;;;14.40;90.80;;;;;;5054962;28;20025;-76
2021/06/29 01:56:28;;;;;;;3.20;1.48;;;14.60;90.80;;;;;;5054939;28;20032;-75
2021/06/29 01:58:58;;;;;;;4.47;1.83;;;14.70;90.70;;;;;;5054939;28;20396;-75
2021/06/29 02:01:23;;;;;;;4.30;1.50;;;14.90;90.30;;;;;;5054865;28;20063;-76
2021/06/29 02:03:49;;;;;;;2.10;1.20;;;14.90;90.30;;;;;;5055029;28;20504;-76
2021/06/29 02:06:16;;;;;;;3.72;1.38;;;14.90;90.40;;;;;;5054819;28;20378;-76
2021/06/29 02:08:43;;;;;;;3.95;1.30;;;14.90;90.80;;;;;;5055060;28;20107;-76
2021/06/29 02:11:09;;;;;;;3.05;1.30;;;14.90;91.00;;;;;;5054849;28;20499;-76
2021/06/29 02:13:36;;;;;;;5.10;1.58;;;14.90;91.00;;;;;;5054620;28;20420;-75
2021/06/29 02:16:02;;;;;;;2.20;1.30;;;14.90;90.80;;;;;;5054597;28;20100;-76
2021/06/29 02:18:28;;;;;;;4.40;1.60;;;15.10;90.60;;;;;;5054554;28;20454;-76
2021/06/29 02:20:54;;;;;;;2.72;1.45;;;15.20;90.20;;;;;;5054489;28;20090;-76
2021/06/29 02:23:20;;;;;;;;;;;15.20;90.40;;;;;;5054738;28;20041;-76
2021/06/29 02:25:46;;;;;;;3.17;1.50;;;15.00;90.80;;;;;;5054187;28;19928;-76
2021/06/29 02:28:12;;;;;;;4.35;2.00;;;15.00;90.80;;;;;;5054345;28;20405;-76
2021/06/29 02:30:38;;;;;;;;;;;15.00;90.90;;;;;;5054738;28;20014;-76
2021/06/29 02:33:04;;;;;;;5.25;2.03;;;15.00;90.60;;;;;;5054205;28;19908;-75
2021/06/29 02:35:30;;;;;;;9.25;2.60;;;14.90;91.00;;;;;;5054219;28;20021;-75
2021/06/29 02:37:57;;;;;;;8.40;2.80;;;14.90;91.10;;;;;;5053979;28;20098;-76
2021/06/29 02:40:23;;;;;;;8.38;3.50;;;14.70;91.30;;;;;;5052933;28;20106;-77
2021/06/29 02:42:49;;;;;;;8.88;3.50;;;14.50;92.00;;;;;;5054073;28;20029;-75
2021/06/29 02:45:19;;;;;;;11.80;3.28;;;14.50;92.10;;;;;;5052987;28;20516;-76
2021/06/29 02:47:46;;;;;;;10.73;3.85;;;14.40;92.10;;;;;;5054053;28;20028;-75
2021/06/29 02:50:13;;;;;;;11.10;4.35;;;14.60;92.00;;;;;;5053951;28;20021;-75
2021/06/29 02:52:39;;;;;;;11.85;5.65;;;14.50;91.90;;;;;;5053869;28;20371;-75
2021/06/29 02:55:08;;;;;;;18.65;5.72;;;14.50;91.90;;;;;;5053836;28;20048;-77
2021/06/29 02:57:34;;;;;;;13.25;5.78;;;14.50;92.20;;;;;;5054066;28;20106;-76
2021/06/29 03:00:00;;;;;;;;;;;14.60;92.10;;;;;;5054199;28;20029;-75
2021/06/29 03:02:25;;;;;;;9.98;3.35;;;14.60;92.10;;;;;;5052972;28;19911;-75
2021/06/29 03:04:51;;;;;;;4.63;2.38;;;14.60;92.20;;;;;;5053662;28;20079;-74
2021/06/29 03:07:17;;;;;;;10.55;2.58;;;14.70;91.70;;;;;;5053565;28;20057;-76
2021/06/29 03:09:43;;;;;;;8.68;2.47;;;14.90;91.20;;;;;;5053566;28;20441;-76
2021/06/29 03:12:10;;;;;;;8.77;2.53;;;15.00;90.60;;;;;;5053517;28;20515;-74
2021/06/29 03:14:36;;;;;;;6.22;2.40;;;14.90;90.50;;;;;;5053509;28;20192;-77
2021/06/29 03:17:03;;;;;;;6.93;2.25;;;14.60;91.20;;;;;;5053471;28;20029;-76
2021/06/29 03:19:32;;;;;;;6.22;2.20;;;14.50;91.50;;;;;;5053420;28;20021;-75
2021/06/29 03:21:58;;;;;;;5.80;2.20;;;14.50;91.70;;;;;;5053437;28;20108;-75
2021/06/29 03:24:24;;;;;;;6.75;2.10;;;14.60;91.10;;;;;;5051893;28;20418;-76
2021/06/29 03:26:50;;;;;;;;;;;14.50;91.20;;;;;;5053534;28;20025;-75
2021/06/29 03:29:16;;;;;;;5.35;2.13;;;14.50;91.40;;;;;;5053470;28;19904;-74
2021/06/29 03:31:41;;;;;;;9.57;2.63;;;14.60;91.60;;;;;;5053219;28;20478;-75
2021/06/29 03:34:07;;;;;;;7.68;2.22;;;14.60;91.30;;;;;;5053495;28;20108;-76
2021/06/29 03:36:33;;;;;;;11.00;2.00;;;14.70;91.30;;;;;;5053006;28;20029;-75
2021/06/29 03:38:59;;;;;;;9.55;2.17;;;14.80;90.80;;;;;;5053162;28;20035;-76
2021/06/29 03:41:25;;;;;;;8.30;2.05;;;14.80;90.60;;;;;;5053116;28;20015;-76
2021/06/29 03:43:51;;;;;;;5.95;2.20;;;14.70;91.10;;;;;;5053087;28;20151;-76
2021/06/29 03:46:17;;;;;;;9.48;2.30;;;14.60;91.10;;;;;;5053080;28;20032;-75
2021/06/29 03:48:43;;;;;;;7.53;2.30;;;14.70;90.90;;;;;;5053172;28;20141;-76
2021/06/29 03:51:08;;;;;;;9.30;2.53;;;14.70;91.10;;;;;;5053085;28;20035;-76
2021/06/29 03:53:34;;;;;;;6.05;2.53;;;14.60;91.30;;;;;;5051708;28;20017;-75
2021/06/29 03:56:02;;;;;;;14.73;3.42;;;14.20;92.10;;;;;;5053128;28;20541;-76
2021/06/29 03:58:28;;;;;;;7.78;2.42;;;14.10;92.30;;;;;;5051918;28;20060;-75
2021/06/29 04:00:54;;;;;;;8.50;2.80;;;14.30;92.30;;;;;;5052915;28;20029;-76
2021/06/29 04:03:20;;;;;;;11.15;3.30;;;14.50;91.60;;;;;;5052941;28;20017;-76
2021/06/29 04:05:46;;;;;;;12.88;3.40;;;14.60;91.60;;;;;;5053052;28;20112;-76
2021/06/29 04:08:12;;;;;;;10.02;3.05;;;14.80;91.20;;;;;;5053068;28;20100;-75
2021/06/29 04:10:38;;;;;;;9.75;3.33;;;14.90;91.50;;;;;;5051550;28;20041;-76
2021/06/29 04:13:04;;;;;;;15.50;4.45;;;14.90;91.30;;;;;;5054875;28;20417;-75
2021/06/29 04:15:29;;;;;;;;;;;15.00;91.10;;;;;;5057256;28;20025;-76
2021/06/29 04:17:55;;;;;;;9.48;4.05;;;14.90;91.20;;;;;;5057036;28;20062;-76
2021/06/29 04:20:21;;;;;;;;;;;15.00;91.40;;;;;;5057137;28;20025;-75
2021/06/29 04:22:46;;;;;;;14.00;6.38;;;15.10;91.20;;;;;;5056623;28;19904;-76
2021/06/29 04:25:12;;;;;;;;;;;15.00;91.20;;;;;;5057070;28;20029;-75
2021/06/29 04:27:38;;;;;;;12.40;6.20;;;15.10;91.40;;;;;;5055203;28;19909;-75
2021/06/29 04:30:07;;;;;;;18.65;8.23;;;15.10;91.30;;;;;;5055267;28;20021;-76
2021/06/29 04:32:33;;;;;;;16.65;7.65;;;15.00;91.60;;;;;;5056716;28;20037;-76
2021/06/29 04:34:59;;;;;;;13.10;7.68;;;14.70;92.70;;;;;;5055185;28;20020;-76
2021/06/29 04:37:25;;;;;;;13.57;6.20;;;14.80;92.40;;;;;;5056527;28;20045;-76
2021/06/29 04:39:50;;;;;;;18.25;6.93;;;14.90;92.30;;;;;;5056431;28;20033;-76
2021/06/29 04:42:16;;;;;;;;;;;15.10;91.60;;;;;;5057086;28;20040;-75
2021/06/29 04:44:42;;;;;;;12.35;7.05;;;15.20;91.20;;;;;;5056382;28;20280;-76
2021/06/29 04:47:09;;;;;;;14.52;6.93;;;15.30;91.00;;;;;;5056210;28;20021;-75
2021/06/29 04:49:36;;;;;;;15.27;6.53;;;15.40;90.90;;;;;;5056173;28;20025;-76
2021/06/29 04:52:02;;;;;;;13.30;6.50;;;15.40;90.90;;;;;;5054899;28;20116;-76
2021/06/29 04:54:28;;;;;;;12.90;6.90;;;15.40;90.90;;;;;;5056023;28;20096;-75
2021/06/29 04:56:55;;;;;;;13.15;6.57;;;15.40;91.10;;;;;;5056125;28;20071;-76
2021/06/29 04:59:21;;;;;;;10.45;6.07;;;15.40;91.00;;;;;;5056014;28;20052;-75
2021/06/29 05:01:46;;;;;;;15.00;6.60;;;15.30;91.40;;;;;;5054662;28;20049;-75
2021/06/29 05:04:12;;;;;;;;;;;15.40;91.20;;;;;;5056328;28;20029;-76
2021/06/29 05:06:38;;;;;;;14.63;6.57;;;15.50;91.20;;;;;;5055877;28;20378;-76
2021/06/29 05:09:03;;;;;;;;;;;15.50;91.00;;;;;;5056359;28;20032;-76
2021/06/29 05:11:29;;;;;;;12.48;6.70;;;15.50;91.10;;;;;;5054337;28;19904;-76
2021/06/29 05:13:55;;;;;;;;;;;15.60;90.80;;;;;;5056519;28;20055;-77
2021/06/29 05:16:21;;;;;;;9.73;5.85;;;15.50;91.10;;;;;;5055717;28;20285;-76
2021/06/29 05:18:46;;;;;;;;;;;15.60;91.00;;;;;;5056127;28;20048;-76
2021/06/29 05:21:12;;;;;;;12.43;6.63;;;15.60;91.00;;;;;;5054308;28;19915;-75
2021/06/29 05:23:37;;;;;;;;;;;15.60;91.00;;;;;;5054095;28;20036;-75
2021/06/29 05:26:03;;;;;;;12.23;6.03;;;15.50;91.30;;;;;;5055209;28;19912;-76
2021/06/29 05:28:29;;;;;;;;;;;15.40;91.60;;;;;;5055968;28;20095;-75
2021/06/29 05:30:57;;;;;;;11.82;5.50;;;15.80;90.80;;;;;;5055652;28;19959;-75
2021/06/29 05:33:23;;;;;;;9.85;5.65;;;16.10;90.40;;;;;;5055406;28;20111;-75
2021/06/29 05:35:49;;;;;;;;;;;16.20;90.10;;;;;;5055819;28;20070;-75
2021/06/29 05:38:15;;;;;;;10.63;5.28;;;16.30;90.10;;;;;;5053591;28;19916;-76
2021/06/29 05:40:41;;;;;;;9.07;5.10;;;16.40;89.80;;;;;;5055272;28;20025;-77
2021/06/29 05:43:06;;;;;;;;;;;16.50;89.10;;;;;;5055688;28;20431;-75
2021/06/29 05:45:32;;;;;;;9.43;5.00;;;16.70;88.50;;;;;;5055285;28;20361;-77
2021/06/29 05:47:58;;;;;;;;;;;16.60;88.30;;;;;;5055512;28;20021;-75
2021/06/29 05:50:24;;;;;;;9.13;4.45;;;16.50;88.60;;;;;;5055296;28;19959;-76
2021/06/29 05:52:50;;;;;;;7.80;4.03;;;16.60;88.90;;;;;;5055031;28;20017;-76
2021/06/29 05:55:16;;;;;;;;;;;16.90;88.10;;;;;;5055446;28;20017;-76
2021/06/29 05:57:43;;;;;;;8.32;4.40;;;17.00;87.20;;;;;;5053491;28;19905;-77
2021/06/29 06:00:15;;;;;;;10.45;4.50;;;17.00;87.30;;;;;;5054902;28;20021;-76
2021/06/29 06:02:41;;;;;;;11.07;4.97;;;16.80;87.80;;;;;;5055013;28;20029;-77
2021/06/29 06:05:09;;;;;;;11.10;5.40;;;16.90;87.50;;;;;;5054756;28;20013;-76
2021/06/29 06:07:35;;;;;;;12.38;5.22;;;16.90;87.40;;;;;;5054691;28;20029;-76
2021/06/29 06:10:02;;;;;;;11.65;4.80;;;16.80;87.20;;;;;;5054707;28;20017;-77
2021/06/29 06:12:28;;;;;;;11.57;4.70;;;16.80;87.40;;;;;;5054613;28;20025;-76
2021/06/29 06:14:55;;;;;;;10.95;4.95;;;16.80;87.40;;;;;;5054842;28;20024;-76
2021/06/29 06:17:21;;;;;;;9.70;5.25;;;16.90;87.40;;;;;;5054542;28;20457;-76
2021/06/29 06:19:47;;;;;;;10.52;5.20;;;16.90;87.50;;;;;;5053243;28;20021;-76
2021/06/29 06:22:13;;;;;;;9.57;5.15;;;17.30;86.20;;;;;;5053129;28;20032;-76
2021/06/29 06:24:39;;;;;;;11.00;4.55;;;17.40;86.10;;;;;;5054699;28;20021;-75
2021/06/29 06:27:07;;;;;;;;;;;17.60;85.00;;;;;;5054622;28;20028;-75
2021/06/29 06:29:33;;;;;;;12.70;5.32;;;17.50;84.60;;;;;;5054317;28;19904;-76
2021/06/29 06:31:58;;;;;;;11.65;4.88;;;17.40;85.40;;;;;;5054278;28;20021;-76
2021/06/29 06:34:24;;;;;;;11.00;5.25;;;17.40;85.90;;;;;;5054200;28;20029;-76
2021/06/29 06:36:50;;;;;;;10.75;5.00;;;17.50;85.60;;;;;;5054014;28;20408;-75
2021/06/29 06:39:16;;;;;;;;;;;17.70;84.60;;;;;;5054755;28;20025;-76
2021/06/29 06:41:41;;;;;;;10.65;4.28;;;17.70;83.80;;;;;;5054094;28;19905;-76
2021/06/29 06:44:07;;;;;;;;;;;17.80;83.20;;;;;;5054437;28;20094;-76
2021/06/29 06:46:33;;;;;;;9.38;4.20;;;17.80;83.10;;;;;;5053948;28;19904;-75
2021/06/29 06:48:58;;;;;;;;;;;17.50;84.40;;;;;;5054473;28;20028;-77
2021/06/29 06:51:24;;;;;;;13.52;4.90;;;17.20;85.40;;;;;;5053929;28;19966;-77
2021/06/29 06:53:50;;;;;;;;;;;17.20;86.20;;;;;;5054235;28;20025;-76
2021/06/29 06:56:17;;;;;;;10.93;4.68;;;17.20;86.50;;;;;;5053809;28;19905;-76
2021/06/29 06:58:45;;;;;;;11.00;4.32;;;17.20;86.60;;;;;;5053773;28;20032;-76
2021/06/29 07:01:11;;;;;;;10.77;5.03;;;17.30;86.40;;;;;;5053723;28;20021;-75
2021/06/29 07:03:37;;;;;;;9.07;4.18;;;17.40;86.30;;;;;;5053695;28;20025;-75
2021/06/29 07:06:07;;;;;;;10.75;4.63;;;17.70;85.10;;;;;;5054016;28;20052;-76
2021/06/29 07:08:34;;;;;;;12.60;4.72;;;18.00;83.70;;;;;;5053535;28;20025;-76
2021/06/29 07:11:01;;;;;;;9.98;4.30;;;18.10;82.30;;;;;;5053576;28;20010;-75
2021/06/29 07:13:27;;;;;;;14.55;4.93;;;18.10;83.00;;;;;;5053501;28;20393;-76
2021/06/29 07:15:53;;;;;;;10.35;4.75;;;18.30;81.70;;;;;;5053422;28;20020;-76
2021/06/29 07:18:19;;;;;;;9.27;4.05;;;18.30;82.50;;;;;;5053441;28;20032;-76
2021/06/29 07:20:46;;;;;;;11.60;5.32;;;18.40;81.80;;;;;;5053434;28;20025;-76
2021/06/29 07:23:13;;;;;;;11.43;3.90;;;18.30;81.30;;;;;;5053344;28;20040;-75
2021/06/29 07:25:40;;;;;;;9.50;3.95;;;18.30;81.90;;;;;;5053334;28;20094;-76
2021/06/29 07:28:07;;;;;;;9.90;3.42;;;18.40;81.40;;;;;;5053129;28;20373;-75
2021/06/29 07:30:34;;;;;;;8.82;2.53;;;18.40;81.30;;;;;;5053649;28;20049;-76
2021/06/29 07:33:03;;;;;;;10.32;3.00;;;18.30;80.90;;;;;;5053227;28;20104;-77
2021/06/29 07:35:30;;;;;;;8.07;2.80;;;18.60;79.00;;;;;;5053242;28;20017;-76
2021/06/29 07:37:57;;;;;;;9.52;2.65;;;19.00;77.40;;;;;;5051643;28;20084;-75
2021/06/29 07:40:25;;;;;;;10.18;2.80;;;19.10;77.60;;;;;;5053211;28;20025;-75
2021/06/29 07:42:51;;;;;;;10.90;3.13;;;19.80;75.20;;;;;;5053138;28;20048;-76
2021/06/29 07:45:17;;;;;;;9.73;2.92;;;19.90;73.80;;;;;;5053283;28;20025;-76
2021/06/29 07:47:43;;;;;;;10.52;3.03;;;20.30;74.10;;;;;;5052509;28;20025;-76
2021/06/29 07:50:10;;;;;;;8.35;2.85;;;20.60;71.30;;;;;;5054171;28;20092;-76
2021/06/29 07:52:36;;;;;;;7.50;2.45;;;20.60;71.50;;;;;;5055847;28;20052;-74
2021/06/29 07:55:06;;;;;;;7.40;2.70;;;20.60;70.70;;;;;;5056065;28;20021;-73
2021/06/29 07:57:33;;;;;;;5.95;2.15;;;20.70;70.20;;;;;;5055647;28;20104;-75
2021/06/29 07:59:59;;;;;;;8.35;2.22;;;20.80;69.80;;;;;;5055506;28;20025;-75
2021/06/29 08:02:25;;;;;;;8.77;2.38;;;20.80;70.20;;;;;;5055854;28;20033;-75
2021/06/29 08:04:50;;;;;;;7.00;2.00;;;20.50;70.70;;;;;;5057268;28;20036;-74
2021/06/29 08:07:16;;;;;;;7.68;2.30;;;20.30;70.90;;;;;;5057354;28;20571;-74
2021/06/29 08:09:43;;;;;;;8.07;2.28;;;20.20;71.20;;;;;;5055871;28;20389;-75
2021/06/29 08:12:09;;;;;;;10.27;2.33;;;20.40;71.60;;;;;;5055772;28;20100;-74
2021/06/29 08:14:36;;;;;;;6.90;2.10;;;20.80;70.50;;;;;;5053734;28;20029;-74
2021/06/29 08:17:04;;;;;;;6.97;2.40;;;21.00;69.20;;;;;;5054033;28;20438;-76
2021/06/29 08:19:30;;;;;;;7.57;2.20;;;21.90;66.30;;;;;;5055204;28;20021;-75
2021/06/29 08:21:56;;;;;;;8.80;2.35;;;23.00;63.70;;;;;;5054955;28;20028;-76
2021/06/29 08:24:22;;;;;;;6.82;2.15;;;24.00;60.70;;;;;;5056687;28;20519;-74
2021/06/29 08:26:48;;;;;;;8.77;2.50;;;25.40;56.20;;;;;;5055126;28;20053;-75
2021/06/29 08:29:14;;;;;;;7.65;2.20;;;26.70;53.20;;;;;;5057126;28;20370;-74
2021/06/29 08:31:40;;;;;;;4.35;1.73;;;27.30;53.00;;;;;;5058646;28;20017;-76
2021/06/29 08:34:06;;;;;;;7.20;1.92;;;27.80;49.80;;;;;;5055063;28;20029;-75
2021/06/29 08:36:33;;;;;;;5.68;1.90;;;27.30;50.40;;;;;;5057479;28;20075;-75
2021/06/29 08:38:59;;;;;;;5.32;2.13;;;27.10;51.20;;;;;;5057095;28;20497;-75
2021/06/29 08:41:26;;;;;;;7.68;1.90;;;26.90;51.70;;;;;;5057499;28;20029;-75
2021/06/29 08:43:54;;;;;;;5.57;1.65;;;26.50;51.10;;;;;;5056273;28;20435;-75
2021/06/29 08:46:19;;;;;;;9.25;1.88;;;25.80;53.10;;;;;;5055491;28;20477;-75
2021/06/29 08:48:45;;;;;;;6.57;1.90;;;25.40;53.50;;;;;;5054857;28;20036;-74
2021/06/29 08:51:14;;;;;;;7.00;2.00;;;25.10;53.90;;;;;;5054596;28;20104;-76
2021/06/29 08:53:39;;;;;;;7.70;2.25;;;25.00;55.00;;;;;;5055318;28;20027;-76
2021/06/29 08:56:05;;;;;;;5.53;2.08;;;26.10;53.10;;;;;;5056862;28;20056;-75
2021/06/29 08:58:34;;;;;;;6.93;1.90;;;27.60;51.60;;;;;;5057204;28;20017;-74
2021/06/29 09:01:00;;;;;;;6.60;1.60;;;27.70;48.70;;;;;;5061874;28;20021;-74
2021/06/29 09:03:26;;;;;;;7.43;1.73;;;26.40;50.70;;;;;;5062347;28;20020;-74
2021/06/29 09:05:53;;;;;;;11.45;2.40;;;25.60;52.60;;;;;;5060303;28;20041;-74
2021/06/29 09:08:21;;;;;;;7.45;2.10;;;25.50;54.40;;;;;;5062484;28;20051;-74
2021/06/29 09:11:06;;;;;;;9.10;2.05;;;26.10;54.00;;;;;;5062216;28;20067;-74
2021/06/29 09:13:32;;;;;;;9.80;2.20;;;27.10;49.60;;;;;;5060660;28;20079;-74
2021/06/29 09:15:58;;;;;;;7.38;2.10;;;25.70;52.00;;;;;;5060723;28;20032;-75
2021/06/29 09:18:32;;;;;;;6.03;1.80;;;25.50;52.80;;;;;;5061481;28;20465;-75
2021/06/29 09:21:01;;;;;;;10.73;2.35;;;26.00;52.60;;;;;;5060404;28;20481;-75
2021/06/29 09:23:40;;;;;;;14.85;2.80;;;25.70;52.80;;;;;;5061741;28;20040;-74
2021/06/29 09:26:14;;;;;;;6.35;2.00;;;25.40;54.20;;;;;;5061804;28;20049;-75
2021/06/29 09:28:48;;;;;;;10.75;2.42;;;25.00;55.40;;;;;;5060209;28;20028;-74
2021/06/29 09:31:23;;;;;;;6.93;1.92;;;24.50;54.90;;;;;;5061203;28;20393;-74
2021/06/29 09:34:00;;;;;;;7.35;1.92;;;24.50;55.80;;;;;;5060481;28;20108;-76
2021/06/29 09:36:34;;;;;;;7.57;2.20;;;24.70;56.50;;;;;;5058901;28;20385;-75
2021/06/29 09:39:07;;;;;;;8.00;2.42;;;25.70;54.30;;;;;;5059982;28;20412;-76
2021/06/29 09:41:35;;;;;;;8.52;2.20;;;27.60;50.70;;;;;;5060601;28;20036;-75
2021/06/29 09:44:06;;;;;;;6.38;1.90;;;29.20;47.80;;;;;;5060072;28;20025;-74
2021/06/29 09:46:33;;;;;;;7.93;2.40;;;30.20;44.50;;;;;;5060383;28;20025;-75
2021/06/29 09:49:08;;;;;;;7.63;2.05;;;30.30;43.80;;;;;;5060923;28;20027;-75
2021/06/29 09:51:34;;;;;;;7.15;1.77;;;29.70;43.90;;;;;;5060599;28;20029;-74
2021/06/29 09:54:06;;;;;;;7.53;2.35;;;29.10;43.50;;;;;;5059956;28;20031;-75
2021/06/29 09:56:38;;;;;;;6.40;2.10;;;28.30;43.70;;;;;;5058709;28;20052;-77
2021/06/29 09:59:10;;;;;;;5.03;1.85;;;26.60;47.00;;;;;;5059225;28;20029;-75
2021/06/29 10:01:35;;;;;;;5.43;1.90;;;27.10;46.40;;;;;;5061441;28;20029;-75
2021/06/29 10:04:04;;;;;;;5.43;1.63;;;27.30;46.20;;;;;;5060147;28;20092;-76
2021/06/29 10:06:35;;;;;;;7.20;1.80;;;27.80;46.70;;;;;;5060077;28;20035;-77
2021/06/29 10:09:06;;;;;;;5.07;1.67;;;29.20;45.30;;;;;;5058918;28;20032;-75
2021/06/29 10:11:38;;;;;;;5.88;1.50;;;30.10;41.80;;;;;;5059260;28;20420;-74
2021/06/29 10:14:17;;;;;;;5.30;1.40;;;28.30;39.90;;;;;;5056681;28;20029;-76
2021/06/29 10:16:45;;;;;;;5.57;1.60;;;27.80;44.20;;;;;;5058809;28;20032;-76
2021/06/29 10:19:16;;;;;;;8.93;2.10;;;29.80;41.90;;;;;;5060729;28;20074;-75
2021/06/29 10:21:46;;;;;;;7.05;1.60;;;28.50;41.90;;;;;;5061666;28;20032;-75
2021/06/29 10:24:14;;;;;;;4.68;1.48;;;28.10;45.40;;;;;;5060532;28;20036;-76
2021/06/29 10:26:41;;;;;;;4.53;1.58;;;28.60;44.50;;;;;;5060526;28;20482;-74
2021/06/29 10:29:10;;;;;;;5.28;1.55;;;28.80;43.60;;;;;;5058982;28;20025;-76
2021/06/29 10:31:39;;;;;;;6.78;1.50;;;28.60;43.40;;;;;;5061089;28;20053;-76
2021/06/29 10:34:07;;;;;;;9.80;1.90;;;28.00;45.10;;;;;;5061005;28;20021;-75
2021/06/29 10:36:38;;;;;;;6.40;1.70;;;27.50;46.00;;;;;;5060651;28;20486;-74
2021/06/29 10:39:05;;;;;;;7.65;1.70;;;27.10;46.50;;;;;;5059215;28;20043;-73
2021/06/29 10:41:41;;;;;;;4.97;1.50;;;26.80;46.60;;;;;;5060448;28;20028;-76
2021/06/29 10:44:15;;;;;;;4.47;1.67;;;27.60;45.50;;;;;;5060122;28;20032;-75
2021/06/29 10:46:46;;;;;;;5.72;1.67;;;28.70;44.10;;;;;;5060435;28;20072;-75
2021/06/29 10:49:30;;;;;;;4.80;1.65;;;29.10;42.50;;;;;;5060446;28;20112;-74
2021/06/29 10:52:02;;;;;;;5.60;2.15;;;30.00;41.80;;;;;;5054848;28;20025;-76
2021/06/29 10:54:42;;;;;;;7.63;1.88;;;30.00;40.60;;;;;;5052381;28;20094;-76
2021/06/29 10:57:12;;;;;;;5.03;1.50;;;30.40;39.50;;;;;;5025380;28;20421;-76
2021/06/29 10:59:39;;;;;;;4.63;1.40;;;30.90;39.50;;;;;;5027416;28;20382;-77
2021/06/29 11:02:07;;;;;;;5.03;1.27;;;30.90;38.90;;;;;;5033913;28;20029;-76
2021/06/29 11:04:58;;;;;;;5.32;1.58;;;29.80;40.10;;;;;;5033835;28;20022;-76
2021/06/29 11:07:27;;;;;;;5.70;1.50;;;29.90;41.50;;;;;;5033832;28;20518;-77
2021/06/29 11:09:55;;;;;;;4.35;1.30;;;30.10;41.70;;;;;;5033825;28;20044;-76
2021/06/29 11:12:23;;;;;;;5.93;1.65;;;29.80;40.90;;;;;;5033651;28;20486;-78
2021/06/29 11:14:51;;;;;;;8.13;2.25;;;30.60;41.00;;;;;;5033667;28;20020;-77
2021/06/29 11:17:18;;;;;;;4.32;1.70;;;31.60;38.80;;;;;;5033642;28;20025;-76
2021/06/29 11:20:03;;;;;;;3.58;1.50;;;31.40;38.20;;;;;;5033708;28;20029;-78
2021/06/29 11:22:58;;;;;;;5.40;1.58;;;31.30;39.90;;;;;;5027197;28;20113;-76
2021/06/29 11:25:36;;;;;;;4.63;1.67;;;31.40;39.40;;;;;;5025972;28;20021;-77
2021/06/29 11:28:16;;;;;;;5.00;1.45;;;31.60;38.90;;;;;;5031843;28;20040;-76
2021/06/29 11:30:56;;;;;;;3.80;1.60;;;31.30;38.50;;;;;;5031914;28;20082;-76
2021/06/29 11:33:34;;;;;;;5.50;1.40;;;32.50;39.30;;;;;;5033471;28;20025;-76
2021/06/29 11:36:00;;;;;;;3.92;1.30;;;31.90;36.50;;;;;;5031777;28;20083;-76
2021/06/29 11:38:40;;;;;;;4.40;1.40;;;31.80;37.40;;;;;;5032839;28;20085;-78
2021/06/29 11:41:24;;;;;;;5.45;1.50;;;31.50;39.40;;;;;;5033427;28;20125;-77
2021/06/29 11:44:05;;;;;;;3.85;1.20;;;30.70;38.20;;;;;;5033208;28;20033;-76
2021/06/29 11:47:02;;;;;;;4.22;1.30;;;30.80;38.80;;;;;;5033420;28;20488;-77
2021/06/29 11:49:33;;;;;;;3.65;1.40;;;31.80;36.30;;;;;;5033045;28;20022;-77
2021/06/29 11:52:26;;;;;;;5.15;1.50;;;32.50;36.30;;;;;;5033634;28;20436;-77
2021/06/29 11:54:55;;;;;;;;;;;32.10;37.30;;;;;;5032060;28;20025;-78
2021/06/29 11:57:38;;;;;;;5.53;1.70;;;32.40;36.40;;;;;;5031759;28;19955;-78
2021/06/29 12:00:31;;;;;;;8.18;1.63;;;32.50;36.00;;;;;;5031540;28;20026;-78
2021/06/29 12:03:03;;;;;;;4.15;1.40;;;31.30;37.40;;;;;;5029821;28;20424;-78
2021/06/29 12:05:33;;;;;;;5.53;1.70;;;31.40;37.00;;;;;;5033012;28;20079;-78
2021/06/29 12:08:12;;;;;;;3.45;1.50;;;32.20;37.50;;;;;;5032925;28;20036;-76
2021/06/29 12:10:50;;;;;;;2.95;1.45;;;32.80;36.50;;;;;;5033306;28;20070;-76
2021/06/29 12:13:18;;;;;;;3.63;1.40;;;34.00;35.60;;;;;;5031326;28;20025;-77
2021/06/29 12:15:51;;;;;;;3.28;1.52;;;34.10;34.10;;;;;;5032937;28;20045;-76
2021/06/29 12:18:23;;;;;;;4.45;1.50;;;34.10;33.30;;;;;;5033069;28;20025;-77
2021/06/29 12:20:56;;;;;;;5.03;1.40;;;32.60;33.60;;;;;;5032909;28;20108;-77
2021/06/29 12:23:28;;;;;;;8.77;1.50;;;33.10;34.30;;;;;;5032899;28;20037;-76
2021/06/29 12:25:54;;;;;;;3.03;1.52;;;33.90;34.60;;;;;;5031628;28;20268;-77
2021/06/29 12:28:40;;;;;;;4.43;1.58;;;34.90;33.70;;;;;;5032819;28;20026;-77
2021/06/29 12:31:08;;;;;;;4.80;1.58;;;35.00;33.00;;;;;;5032846;28;20100;-78
2021/06/29 12:33:39;;;;;;;5.68;1.80;;;34.90;34.00;;;;;;5034001;28;20069;-76
2021/06/29 12:36:21;;;;;;;3.67;1.63;;;35.20;33.60;;;;;;5036731;28;20060;-78
2021/06/29 12:38:52;;;;;;;6.00;1.67;;;35.00;32.40;;;;;;4997501;28;20565;-76
2021/06/29 12:41:25;;;;;;;2.67;1.60;;;35.60;33.40;;;;;;4997302;28;20038;-78
2021/06/29 12:44:00;;;;;;;2.20;1.47;;;35.40;33.60;;;;;;4995970;28;20026;-78
2021/06/29 12:46:29;;;;;;;3.95;1.60;;;35.00;32.50;;;;;;4995867;28;20121;-77
2021/06/29 12:49:15;;;;;;;2.05;1.40;;;34.30;31.70;;;;;;4997015;28;20027;-78
2021/06/29 12:51:50;;;;;;;3.28;1.50;;;32.70;33.30;;;;;;4997620;28;20467;-76
2021/06/29 12:54:18;;;;;;;4.47;1.60;;;33.40;33.80;;;;;;4995748;28;20027;-78
2021/06/29 12:56:55;;;;;;;2.33;1.55;;;34.60;34.00;;;;;;4998219;28;20113;-77
2021/06/29 12:59:28;;;;;;;3.72;1.70;;;35.80;31.90;;;;;;5002018;28;20502;-76